Řízení letového provozu České republiky
Letiste: LKMT Aktualizace: 09.12.2016 11:35:08  UTC
 METAR LKMT 09.12. 11:30 ...
METAR LKMT 091130Z 22016KT 8000 NSC 03/M01 Q1025 NOSIG=
 TAF LKMT 09.12. 11:00 ...
TAF LKMT 091100Z 0912/1018 21016KT 9999 SCT040      TEMPO 0912/0921 22018G28KT 9999 BKN030      TEMPO 0922/1004 4000 BR NSC      TEMPO 1004/1018 22014G24KT=